Impacts TAF Board INFO
FOR SITUATIONAL AWARENESS. NOT TO BE USED FOR FLIGHT PLANNING PURPOSES.
IDs:

KEAU - Eau Claire/Chippewa, WI, US

Issued at 2327 UTC 15 Dec 2017
Updated at 0324 UTC 16 Dec 2017
Potential Impact None Slight Moderate High
Time<<16/16Z 16/17Z 16/18Z 16/19Z 16/20Z 16/21Z 16/22Z 16/23Z 17/00Z 17/01Z 17/02Z 17/03Z 17/04Z>>
Type PRVL PRVL PRVL PRVL PRVL PRVL PRVL PRVL
VIS >6 >6 >6 >6 >6 >6 >6 >6
CIG 25 25 25 25 25 20 20 20
Cover OVC OVC OVC OVC OVC OVC OVC OVC
FltCat MVFR MVFR MVFR MVFR MVFR MVFR MVFR MVFR
WX -- -- -- -- -- -- -- --
WDir 90 90 90 90 90 100 100 100
WSpd 6 6 6 6 6 6 6 6
WGst -- -- -- -- -- -- -- --

Raw TAF
KEAU 152327Z 1600/1624 28007KT P6SM OVC020
  FM160200 11003KT 4SM -SN OVC025
  TEMPO 1603/1607 2SM -SN OVC015
  FM161000 08006KT P6SM VCSH OVC020
  FM161200 09006KT P6SM OVC025
  FM162100 10006KT P6SM OVC020


METAR Board
Radar Display
Forecast Discussion

FOR SITUATIONAL AWARENESS. NOT TO BE USED FOR FLIGHT PLANNING PURPOSES.